sensor_id;sensor_type;location;lat;lon;timestamp;temperature;humidity
84176;DHT22;74306;40.114;18.304;2023-12-22T00:00:13;10.40;80.80
84176;DHT22;74306;40.114;18.304;2023-12-22T00:02:42;10.40;81.00
84176;DHT22;74306;40.114;18.304;2023-12-22T00:05:12;10.40;81.00
84176;DHT22;74306;40.114;18.304;2023-12-22T00:07:41;10.40;80.90
84176;DHT22;74306;40.114;18.304;2023-12-22T00:10:12;10.40;81.00
84176;DHT22;74306;40.114;18.304;2023-12-22T00:12:41;10.30;81.10
84176;DHT22;74306;40.114;18.304;2023-12-22T00:15:11;10.30;80.80
84176;DHT22;74306;40.114;18.304;2023-12-22T00:17:41;10.30;81.20
84176;DHT22;74306;40.114;18.304;2023-12-22T00:20:11;10.40;81.70
84176;DHT22;74306;40.114;18.304;2023-12-22T00:22:42;10.40;81.70
84176;DHT22;74306;40.114;18.304;2023-12-22T00:25:13;10.60;81.70
84176;DHT22;74306;40.114;18.304;2023-12-22T00:27:42;10.70;81.70
84176;DHT22;74306;40.114;18.304;2023-12-22T00:30:11;10.80;81.50
84176;DHT22;74306;40.114;18.304;2023-12-22T00:32:41;10.80;81.30
84176;DHT22;74306;40.114;18.304;2023-12-22T00:35:10;11.00;81.30
84176;DHT22;74306;40.114;18.304;2023-12-22T00:37:39;11.00;81.30
84176;DHT22;74306;40.114;18.304;2023-12-22T00:40:10;11.20;81.10
84176;DHT22;74306;40.114;18.304;2023-12-22T00:42:41;11.30;80.80
84176;DHT22;74306;40.114;18.304;2023-12-22T00:45:10;11.40;80.70
84176;DHT22;74306;40.114;18.304;2023-12-22T00:47:39;11.50;80.50
84176;DHT22;74306;40.114;18.304;2023-12-22T00:50:09;11.60;80.50
84176;DHT22;74306;40.114;18.304;2023-12-22T00:52:38;11.60;80.50
84176;DHT22;74306;40.114;18.304;2023-12-22T00:55:08;11.60;80.30
84176;DHT22;74306;40.114;18.304;2023-12-22T00:57:37;11.70;80.30
84176;DHT22;74306;40.114;18.304;2023-12-22T01:00:09;11.70;80.40
84176;DHT22;74306;40.114;18.304;2023-12-22T01:02:40;11.80;80.20
84176;DHT22;74306;40.114;18.304;2023-12-22T01:05:09;11.80;80.10
84176;DHT22;74306;40.114;18.304;2023-12-22T01:07:39;11.90;80.00
84176;DHT22;74306;40.114;18.304;2023-12-22T01:10:09;12.00;79.90
84176;DHT22;74306;40.114;18.304;2023-12-22T01:12:38;12.10;80.00
84176;DHT22;74306;40.114;18.304;2023-12-22T01:15:09;12.10;79.70
84176;DHT22;74306;40.114;18.304;2023-12-22T01:17:38;12.10;79.60
84176;DHT22;74306;40.114;18.304;2023-12-22T01:20:09;12.10;79.60
84176;DHT22;74306;40.114;18.304;2023-12-22T01:22:38;12.10;79.50
84176;DHT22;74306;40.114;18.304;2023-12-22T01:25:08;12.10;79.70
84176;DHT22;74306;40.114;18.304;2023-12-22T01:27:38;12.20;79.50
84176;DHT22;74306;40.114;18.304;2023-12-22T01:30:09;12.20;79.40
84176;DHT22;74306;40.114;18.304;2023-12-22T01:32:38;12.20;79.30
84176;DHT22;74306;40.114;18.304;2023-12-22T01:35:08;12.10;79.40
84176;DHT22;74306;40.114;18.304;2023-12-22T01:37:38;12.10;79.20
84176;DHT22;74306;40.114;18.304;2023-12-22T01:40:08;12.00;79.50
84176;DHT22;74306;40.114;18.304;2023-12-22T01:42:37;12.00;79.30
84176;DHT22;74306;40.114;18.304;2023-12-22T01:45:09;11.90;79.50
84176;DHT22;74306;40.114;18.304;2023-12-22T01:47:39;11.90;79.70
84176;DHT22;74306;40.114;18.304;2023-12-22T01:50:09;11.90;79.80
84176;DHT22;74306;40.114;18.304;2023-12-22T01:52:40;11.80;79.90
84176;DHT22;74306;40.114;18.304;2023-12-22T01:55:12;11.80;80.30
84176;DHT22;74306;40.114;18.304;2023-12-22T01:57:42;11.90;80.00
84176;DHT22;74306;40.114;18.304;2023-12-22T02:00:14;11.90;79.80
84176;DHT22;74306;40.114;18.304;2023-12-22T02:02:44;11.80;79.90
84176;DHT22;74306;40.114;18.304;2023-12-22T02:05:15;11.80;80.10
84176;DHT22;74306;40.114;18.304;2023-12-22T02:07:46;11.80;80.30
84176;DHT22;74306;40.114;18.304;2023-12-22T02:10:15;11.80;80.20
84176;DHT22;74306;40.114;18.304;2023-12-22T02:12:44;11.80;80.00
84176;DHT22;74306;40.114;18.304;2023-12-22T02:15:15;11.80;79.80
84176;DHT22;74306;40.114;18.304;2023-12-22T02:17:48;11.70;79.90
84176;DHT22;74306;40.114;18.304;2023-12-22T02:20:21;11.70;79.90
84176;DHT22;74306;40.114;18.304;2023-12-22T02:22:52;11.70;79.90
84176;DHT22;74306;40.114;18.304;2023-12-22T02:25:22;11.60;80.10
84176;DHT22;74306;40.114;18.304;2023-12-22T02:27:56;11.60;80.10
84176;DHT22;74306;40.114;18.304;2023-12-22T02:30:32;11.50;79.90
84176;DHT22;74306;40.114;18.304;2023-12-22T02:33:04;11.40;80.00
84176;DHT22;74306;40.114;18.304;2023-12-22T02:35:37;11.40;80.20
84176;DHT22;74306;40.114;18.304;2023-12-22T02:38:11;11.30;80.30
84176;DHT22;74306;40.114;18.304;2023-12-22T02:40:41;11.20;80.40
84176;DHT22;74306;40.114;18.304;2023-12-22T02:43:11;11.10;80.30
84176;DHT22;74306;40.114;18.304;2023-12-22T02:45:40;11.00;80.50
84176;DHT22;74306;40.114;18.304;2023-12-22T02:48:10;11.00;80.70
84176;DHT22;74306;40.114;18.304;2023-12-22T02:50:39;11.00;80.70
84176;DHT22;74306;40.114;18.304;2023-12-22T02:53:10;11.00;80.90
84176;DHT22;74306;40.114;18.304;2023-12-22T02:55:39;10.90;81.00
84176;DHT22;74306;40.114;18.304;2023-12-22T02:58:08;10.90;81.30
84176;DHT22;74306;40.114;18.304;2023-12-22T03:00:38;10.90;81.30
84176;DHT22;74306;40.114;18.304;2023-12-22T03:03:08;10.90;81.20
84176;DHT22;74306;40.114;18.304;2023-12-22T03:05:37;10.90;81.20
84176;DHT22;74306;40.114;18.304;2023-12-22T03:08:06;10.90;81.10
84176;DHT22;74306;40.114;18.304;2023-12-22T03:10:37;10.80;81.00
84176;DHT22;74306;40.114;18.304;2023-12-22T03:13:07;10.80;81.30
84176;DHT22;74306;40.114;18.304;2023-12-22T03:15:36;10.80;81.50
84176;DHT22;74306;40.114;18.304;2023-12-22T03:18:06;10.80;81.90
84176;DHT22;74306;40.114;18.304;2023-12-22T03:20:35;10.80;81.60
84176;DHT22;74306;40.114;18.304;2023-12-22T03:23:06;10.80;81.80
84176;DHT22;74306;40.114;18.304;2023-12-22T03:25:36;10.80;81.60
84176;DHT22;74306;40.114;18.304;2023-12-22T03:28:06;10.80;81.70
84176;DHT22;74306;40.114;18.304;2023-12-22T03:30:36;10.80;81.70
84176;DHT22;74306;40.114;18.304;2023-12-22T03:33:05;10.90;81.90
84176;DHT22;74306;40.114;18.304;2023-12-22T03:35:35;11.00;81.90
84176;DHT22;74306;40.114;18.304;2023-12-22T03:38:04;11.10;81.90
84176;DHT22;74306;40.114;18.304;2023-12-22T03:40:34;11.10;82.50
84176;DHT22;74306;40.114;18.304;2023-12-22T03:43:04;11.30;82.20
84176;DHT22;74306;40.114;18.304;2023-12-22T03:45:34;11.40;81.80
84176;DHT22;74306;40.114;18.304;2023-12-22T03:48:04;11.50;81.90
84176;DHT22;74306;40.114;18.304;2023-12-22T03:50:33;11.60;81.50
84176;DHT22;74306;40.114;18.304;2023-12-22T03:53:03;11.80;81.20
84176;DHT22;74306;40.114;18.304;2023-12-22T03:55:32;11.90;80.80
84176;DHT22;74306;40.114;18.304;2023-12-22T03:58:01;12.00;80.10
84176;DHT22;74306;40.114;18.304;2023-12-22T04:00:33;12.10;79.10
84176;DHT22;74306;40.114;18.304;2023-12-22T04:03:04;12.30;78.20
84176;DHT22;74306;40.114;18.304;2023-12-22T04:05:33;12.50;77.20
84176;DHT22;74306;40.114;18.304;2023-12-22T04:08:03;12.60;76.40
84176;DHT22;74306;40.114;18.304;2023-12-22T04:10:32;12.70;75.60
84176;DHT22;74306;40.114;18.304;2023-12-22T04:13:02;12.80;74.80
84176;DHT22;74306;40.114;18.304;2023-12-22T04:15:33;12.90;74.00
84176;DHT22;74306;40.114;18.304;2023-12-22T04:18:02;13.10;73.40
84176;DHT22;74306;40.114;18.304;2023-12-22T04:20:32;13.20;72.90
84176;DHT22;74306;40.114;18.304;2023-12-22T04:23:01;13.30;72.50
84176;DHT22;74306;40.114;18.304;2023-12-22T04:25:30;13.30;72.30
84176;DHT22;74306;40.114;18.304;2023-12-22T04:27:59;13.30;72.30
84176;DHT22;74306;40.114;18.304;2023-12-22T04:30:29;13.30;72.10
84176;DHT22;74306;40.114;18.304;2023-12-22T04:33:00;13.30;71.90
84176;DHT22;74306;40.114;18.304;2023-12-22T04:35:30;13.30;71.90
84176;DHT22;74306;40.114;18.304;2023-12-22T04:37:59;13.40;72.00
84176;DHT22;74306;40.114;18.304;2023-12-22T04:40:28;13.40;71.80
84176;DHT22;74306;40.114;18.304;2023-12-22T04:42:58;13.40;71.80
84176;DHT22;74306;40.114;18.304;2023-12-22T04:45:27;13.30;72.10
84176;DHT22;74306;40.114;18.304;2023-12-22T04:47:56;13.30;72.20
84176;DHT22;74306;40.114;18.304;2023-12-22T04:50:27;13.30;72.40
84176;DHT22;74306;40.114;18.304;2023-12-22T04:52:57;13.20;72.70
84176;DHT22;74306;40.114;18.304;2023-12-22T04:55:26;13.20;73.00
84176;DHT22;74306;40.114;18.304;2023-12-22T04:57:55;13.10;73.10
84176;DHT22;74306;40.114;18.304;2023-12-22T05:00:25;13.00;73.50
84176;DHT22;74306;40.114;18.304;2023-12-22T05:02:54;12.90;73.80
84176;DHT22;74306;40.114;18.304;2023-12-22T05:05:24;12.90;73.90
84176;DHT22;74306;40.114;18.304;2023-12-22T05:07:54;12.80;74.00
84176;DHT22;74306;40.114;18.304;2023-12-22T05:10:25;12.80;74.20
84176;DHT22;74306;40.114;18.304;2023-12-22T05:12:54;12.80;74.30
84176;DHT22;74306;40.114;18.304;2023-12-22T05:15:23;12.80;74.30
84176;DHT22;74306;40.114;18.304;2023-12-22T05:17:53;12.70;74.60
84176;DHT22;74306;40.114;18.304;2023-12-22T05:20:22;12.70;74.70
84176;DHT22;74306;40.114;18.304;2023-12-22T05:22:51;12.70;74.90
84176;DHT22;74306;40.114;18.304;2023-12-22T05:25:22;12.60;75.00
84176;DHT22;74306;40.114;18.304;2023-12-22T05:27:51;12.60;75.00
84176;DHT22;74306;40.114;18.304;2023-12-22T05:30:21;12.60;75.30
84176;DHT22;74306;40.114;18.304;2023-12-22T05:32:50;12.50;75.40
84176;DHT22;74306;40.114;18.304;2023-12-22T05:35:19;12.60;75.30
84176;DHT22;74306;40.114;18.304;2023-12-22T05:37:48;12.50;75.50
84176;DHT22;74306;40.114;18.304;2023-12-22T05:40:18;12.60;75.30
84176;DHT22;74306;40.114;18.304;2023-12-22T05:42:49;12.50;75.30
84176;DHT22;74306;40.114;18.304;2023-12-22T05:45:18;12.50;75.70
84176;DHT22;74306;40.114;18.304;2023-12-22T05:47:47;12.50;75.60
84176;DHT22;74306;40.114;18.304;2023-12-22T05:50:17;12.50;75.90
84176;DHT22;74306;40.114;18.304;2023-12-22T05:52:46;12.50;75.80
84176;DHT22;74306;40.114;18.304;2023-12-22T05:55:16;12.50;76.00
84176;DHT22;74306;40.114;18.304;2023-12-22T05:57:45;12.40;76.30
84176;DHT22;74306;40.114;18.304;2023-12-22T06:00:17;12.40;76.40
84176;DHT22;74306;40.114;18.304;2023-12-22T06:02:46;12.50;76.40
84176;DHT22;74306;40.114;18.304;2023-12-22T06:05:15;12.50;76.30
84176;DHT22;74306;40.114;18.304;2023-12-22T06:07:45;12.60;76.10
84176;DHT22;74306;40.114;18.304;2023-12-22T06:10:14;12.70;76.10
84176;DHT22;74306;40.114;18.304;2023-12-22T06:12:43;12.60;76.20
84176;DHT22;74306;40.114;18.304;2023-12-22T06:15:13;12.70;76.20
84176;DHT22;74306;40.114;18.304;2023-12-22T06:17:44;12.70;76.30
84176;DHT22;74306;40.114;18.304;2023-12-22T06:20:13;12.70;76.30
84176;DHT22;74306;40.114;18.304;2023-12-22T06:22:42;12.70;76.20
84176;DHT22;74306;40.114;18.304;2023-12-22T06:25:11;12.60;76.80
84176;DHT22;74306;40.114;18.304;2023-12-22T06:27:41;12.70;76.90
84176;DHT22;74306;40.114;18.304;2023-12-22T06:30:11;12.70;77.10
84176;DHT22;74306;40.114;18.304;2023-12-22T06:32:40;12.90;76.70
84176;DHT22;74306;40.114;18.304;2023-12-22T06:35:11;12.90;76.80
84176;DHT22;74306;40.114;18.304;2023-12-22T06:37:41;13.00;76.60
84176;DHT22;74306;40.114;18.304;2023-12-22T06:40:11;13.10;76.60
84176;DHT22;74306;40.114;18.304;2023-12-22T06:42:40;13.10;76.50
84176;DHT22;74306;40.114;18.304;2023-12-22T06:45:10;13.30;76.50
84176;DHT22;74306;40.114;18.304;2023-12-22T06:47:39;13.30;76.30
84176;DHT22;74306;40.114;18.304;2023-12-22T06:50:10;13.40;76.30
84176;DHT22;74306;40.114;18.304;2023-12-22T06:52:40;13.40;76.40
84176;DHT22;74306;40.114;18.304;2023-12-22T06:55:09;13.40;76.50
84176;DHT22;74306;40.114;18.304;2023-12-22T06:57:39;13.40;76.60
84176;DHT22;74306;40.114;18.304;2023-12-22T07:00:09;13.50;76.70
84176;DHT22;74306;40.114;18.304;2023-12-22T07:02:39;13.50;76.80
84176;DHT22;74306;40.114;18.304;2023-12-22T07:05:32;13.50;76.90
84176;DHT22;74306;40.114;18.304;2023-12-22T07:08:04;13.50;77.20
84176;DHT22;74306;40.114;18.304;2023-12-22T07:10:34;13.70;77.10
84176;DHT22;74306;40.114;18.304;2023-12-22T07:13:03;13.70;77.20
84176;DHT22;74306;40.114;18.304;2023-12-22T07:15:32;13.80;77.10
84176;DHT22;74306;40.114;18.304;2023-12-22T07:18:02;13.90;77.10
84176;DHT22;74306;40.114;18.304;2023-12-22T07:20:33;14.00;77.10
84176;DHT22;74306;40.114;18.304;2023-12-22T07:23:03;14.10;77.00
84176;DHT22;74306;40.114;18.304;2023-12-22T07:25:36;14.20;76.60
84176;DHT22;74306;40.114;18.304;2023-12-22T07:28:06;14.20;76.60
84176;DHT22;74306;40.114;18.304;2023-12-22T07:30:36;14.30;76.40
84176;DHT22;74306;40.114;18.304;2023-12-22T07:33:05;14.30;76.60
84176;DHT22;74306;40.114;18.304;2023-12-22T07:35:36;14.30;76.60
84176;DHT22;74306;40.114;18.304;2023-12-22T07:38:05;14.30;76.60
84176;DHT22;74306;40.114;18.304;2023-12-22T07:40:34;14.40;76.30
84176;DHT22;74306;40.114;18.304;2023-12-22T07:43:04;14.40;76.00
84176;DHT22;74306;40.114;18.304;2023-12-22T07:45:34;14.50;76.30
84176;DHT22;74306;40.114;18.304;2023-12-22T07:48:04;14.50;76.30
84176;DHT22;74306;40.114;18.304;2023-12-22T07:50:35;14.40;76.40
84176;DHT22;74306;40.114;18.304;2023-12-22T07:53:04;14.40;76.40
84176;DHT22;74306;40.114;18.304;2023-12-22T07:55:36;14.50;76.20
84176;DHT22;74306;40.114;18.304;2023-12-22T07:58:06;14.50;76.30
84176;DHT22;74306;40.114;18.304;2023-12-22T08:00:36;14.50;76.00
84176;DHT22;74306;40.114;18.304;2023-12-22T08:03:05;14.50;75.70
84176;DHT22;74306;40.114;18.304;2023-12-22T08:05:36;14.50;75.50
84176;DHT22;74306;40.114;18.304;2023-12-22T08:08:06;14.50;75.10
84176;DHT22;74306;40.114;18.304;2023-12-22T08:10:36;14.70;74.60
84176;DHT22;74306;40.114;18.304;2023-12-22T08:13:05;14.70;74.50
84176;DHT22;74306;40.114;18.304;2023-12-22T08:15:34;14.80;74.20
84176;DHT22;74306;40.114;18.304;2023-12-22T08:18:04;14.90;74.10
84176;DHT22;74306;40.114;18.304;2023-12-22T08:20:35;14.80;73.90
84176;DHT22;74306;40.114;18.304;2023-12-22T08:23:05;14.80;74.00
84176;DHT22;74306;40.114;18.304;2023-12-22T08:25:34;14.90;74.10
84176;DHT22;74306;40.114;18.304;2023-12-22T08:28:04;15.00;73.90
84176;DHT22;74306;40.114;18.304;2023-12-22T08:30:34;15.00;73.50
84176;DHT22;74306;40.114;18.304;2023-12-22T08:33:04;15.10;73.30
84176;DHT22;74306;40.114;18.304;2023-12-22T08:35:33;15.30;72.70
84176;DHT22;74306;40.114;18.304;2023-12-22T08:38:04;15.30;72.40
84176;DHT22;74306;40.114;18.304;2023-12-22T08:40:33;15.50;72.00
84176;DHT22;74306;40.114;18.304;2023-12-22T08:43:03;15.40;71.00
84176;DHT22;74306;40.114;18.304;2023-12-22T08:45:34;15.60;70.40
84176;DHT22;74306;40.114;18.304;2023-12-22T08:48:04;15.70;69.50
84176;DHT22;74306;40.114;18.304;2023-12-22T08:50:35;15.80;68.80
84176;DHT22;74306;40.114;18.304;2023-12-22T08:53:06;15.70;68.60
84176;DHT22;74306;40.114;18.304;2023-12-22T08:55:35;15.80;68.60
84176;DHT22;74306;40.114;18.304;2023-12-22T08:58:05;15.90;67.90
84176;DHT22;74306;40.114;18.304;2023-12-22T09:00:35;15.90;67.90
84176;DHT22;74306;40.114;18.304;2023-12-22T09:03:04;16.10;67.30
84176;DHT22;74306;40.114;18.304;2023-12-22T09:05:34;16.10;66.90
84176;DHT22;74306;40.114;18.304;2023-12-22T09:08:03;16.10;66.30
84176;DHT22;74306;40.114;18.304;2023-12-22T09:10:35;16.10;65.80
84176;DHT22;74306;40.114;18.304;2023-12-22T09:13:04;16.30;64.80
84176;DHT22;74306;40.114;18.304;2023-12-22T09:15:33;16.20;65.00
84176;DHT22;74306;40.114;18.304;2023-12-22T09:18:04;16.20;64.90
84176;DHT22;74306;40.114;18.304;2023-12-22T09:20:33;16.30;64.50
84176;DHT22;74306;40.114;18.304;2023-12-22T09:23:03;16.30;63.50
84176;DHT22;74306;40.114;18.304;2023-12-22T09:25:37;16.30;63.40
84176;DHT22;74306;40.114;18.304;2023-12-22T09:28:07;16.30;62.70
84176;DHT22;74306;40.114;18.304;2023-12-22T09:30:37;16.50;62.00
84176;DHT22;74306;40.114;18.304;2023-12-22T09:33:06;16.50;61.90
84176;DHT22;74306;40.114;18.304;2023-12-22T09:35:35;16.60;61.60
84176;DHT22;74306;40.114;18.304;2023-12-22T09:38:05;16.60;62.30
84176;DHT22;74306;40.114;18.304;2023-12-22T09:40:34;16.80;61.80
84176;DHT22;74306;40.114;18.304;2023-12-22T09:43:06;16.80;62.00
84176;DHT22;74306;40.114;18.304;2023-12-22T09:45:38;16.80;61.30
84176;DHT22;74306;40.114;18.304;2023-12-22T09:48:09;16.80;60.60
84176;DHT22;74306;40.114;18.304;2023-12-22T09:50:42;17.00;59.10
84176;DHT22;74306;40.114;18.304;2023-12-22T09:53:13;17.20;58.40
84176;DHT22;74306;40.114;18.304;2023-12-22T09:55:45;17.50;58.50
84176;DHT22;74306;40.114;18.304;2023-12-22T09:58:16;17.60;57.40
84176;DHT22;74306;40.114;18.304;2023-12-22T10:00:45;17.80;57.50
84176;DHT22;74306;40.114;18.304;2023-12-22T10:03:16;18.20;56.40
84176;DHT22;74306;40.114;18.304;2023-12-22T10:05:45;18.30;55.90
84176;DHT22;74306;40.114;18.304;2023-12-22T10:08:15;18.50;55.80
84176;DHT22;74306;40.114;18.304;2023-12-22T10:10:47;18.80;54.50
84176;DHT22;74306;40.114;18.304;2023-12-22T10:13:21;18.90;53.80
84176;DHT22;74306;40.114;18.304;2023-12-22T10:15:51;19.40;54.20
84176;DHT22;74306;40.114;18.304;2023-12-22T10:18:23;19.90;52.20
84176;DHT22;74306;40.114;18.304;2023-12-22T10:20:53;20.00;50.90
84176;DHT22;74306;40.114;18.304;2023-12-22T10:23:22;19.80;50.40
84176;DHT22;74306;40.114;18.304;2023-12-22T10:25:51;19.40;52.00
84176;DHT22;74306;40.114;18.304;2023-12-22T10:28:22;20.00;50.80
84176;DHT22;74306;40.114;18.304;2023-12-22T10:30:54;20.10;51.30
84176;DHT22;74306;40.114;18.304;2023-12-22T10:33:25;19.90;52.50
84176;DHT22;74306;40.114;18.304;2023-12-22T10:35:54;20.00;51.70
84176;DHT22;74306;40.114;18.304;2023-12-22T10:38:24;20.00;51.80
84176;DHT22;74306;40.114;18.304;2023-12-22T10:40:53;20.20;52.00
84176;DHT22;74306;40.114;18.304;2023-12-22T10:43:24;20.20;51.80
84176;DHT22;74306;40.114;18.304;2023-12-22T10:45:54;20.30;51.10
84176;DHT22;74306;40.114;18.304;2023-12-22T10:48:23;20.50;50.80
84176;DHT22;74306;40.114;18.304;2023-12-22T10:50:53;20.50;51.20
84176;DHT22;74306;40.114;18.304;2023-12-22T10:53:22;20.80;50.20
84176;DHT22;74306;40.114;18.304;2023-12-22T10:55:53;20.80;50.40
84176;DHT22;74306;40.114;18.304;2023-12-22T10:58:25;21.00;49.70
84176;DHT22;74306;40.114;18.304;2023-12-22T11:00:54;20.80;49.40
84176;DHT22;74306;40.114;18.304;2023-12-22T11:03:24;20.80;49.30
84176;DHT22;74306;40.114;18.304;2023-12-22T11:05:55;21.00;49.90
84176;DHT22;74306;40.114;18.304;2023-12-22T11:08:26;21.60;48.00
84176;DHT22;74306;40.114;18.304;2023-12-22T11:10:58;21.70;47.00
84176;DHT22;74306;40.114;18.304;2023-12-22T11:13:31;21.30;48.00
84176;DHT22;74306;40.114;18.304;2023-12-22T11:16:01;21.50;47.30
84176;DHT22;74306;40.114;18.304;2023-12-22T11:18:31;22.10;47.30
84176;DHT22;74306;40.114;18.304;2023-12-22T11:21:01;22.80;45.60
84176;DHT22;74306;40.114;18.304;2023-12-22T11:23:33;23.20;44.70
84176;DHT22;74306;40.114;18.304;2023-12-22T11:26:04;22.80;45.20
84176;DHT22;74306;40.114;18.304;2023-12-22T11:28:36;22.80;44.90
84176;DHT22;74306;40.114;18.304;2023-12-22T11:31:10;22.60;45.10
84176;DHT22;74306;40.114;18.304;2023-12-22T11:33:43;22.10;44.50
84176;DHT22;74306;40.114;18.304;2023-12-22T11:36:18;21.70;46.00
84176;DHT22;74306;40.114;18.304;2023-12-22T11:38:47;21.80;45.20
84176;DHT22;74306;40.114;18.304;2023-12-22T11:41:19;21.10;47.60
84176;DHT22;74306;40.114;18.304;2023-12-22T11:43:51;20.60;49.00
84176;DHT22;74306;40.114;18.304;2023-12-22T11:46:21;20.50;50.50
84176;DHT22;74306;40.114;18.304;2023-12-22T11:48:52;20.30;50.90
84176;DHT22;74306;40.114;18.304;2023-12-22T11:51:23;19.90;51.90
84176;DHT22;74306;40.114;18.304;2023-12-22T11:53:54;19.70;53.00
84176;DHT22;74306;40.114;18.304;2023-12-22T11:56:24;19.30;53.10
84176;DHT22;74306;40.114;18.304;2023-12-22T11:58:55;19.00;53.90
84176;DHT22;74306;40.114;18.304;2023-12-22T12:01:27;18.90;54.40
84176;DHT22;74306;40.114;18.304;2023-12-22T12:04:01;18.90;54.90
84176;DHT22;74306;40.114;18.304;2023-12-22T12:06:32;18.90;55.20
84176;DHT22;74306;40.114;18.304;2023-12-22T12:09:05;18.60;55.60
84176;DHT22;74306;40.114;18.304;2023-12-22T12:12:09;18.50;56.60
84176;DHT22;74306;40.114;18.304;2023-12-22T12:14:43;18.50;57.20
84176;DHT22;74306;40.114;18.304;2023-12-22T12:17:15;18.30;57.30
84176;DHT22;74306;40.114;18.304;2023-12-22T12:19:47;18.40;58.00
84176;DHT22;74306;40.114;18.304;2023-12-22T12:22:17;18.40;57.20
84176;DHT22;74306;40.114;18.304;2023-12-22T12:24:49;18.40;57.70
84176;DHT22;74306;40.114;18.304;2023-12-22T12:27:18;18.60;57.70
84176;DHT22;74306;40.114;18.304;2023-12-22T12:29:50;18.70;57.30
84176;DHT22;74306;40.114;18.304;2023-12-22T12:32:23;18.70;57.90
84176;DHT22;74306;40.114;18.304;2023-12-22T12:34:52;18.60;58.00
84176;DHT22;74306;40.114;18.304;2023-12-22T12:37:24;18.50;58.60
84176;DHT22;74306;40.114;18.304;2023-12-22T12:39:58;18.30;58.80
84176;DHT22;74306;40.114;18.304;2023-12-22T12:42:29;18.30;59.50
84176;DHT22;74306;40.114;18.304;2023-12-22T12:45:00;18.30;59.40
84176;DHT22;74306;40.114;18.304;2023-12-22T12:47:32;18.60;59.20
84176;DHT22;74306;40.114;18.304;2023-12-22T12:50:02;18.50;58.60
84176;DHT22;74306;40.114;18.304;2023-12-22T12:52:31;18.50;59.30
84176;DHT22;74306;40.114;18.304;2023-12-22T12:55:01;18.60;58.80
84176;DHT22;74306;40.114;18.304;2023-12-22T12:57:30;18.50;58.90
84176;DHT22;74306;40.114;18.304;2023-12-22T13:00:01;18.50;59.30
84176;DHT22;74306;40.114;18.304;2023-12-22T13:02:35;18.50;60.00
84176;DHT22;74306;40.114;18.304;2023-12-22T13:05:05;18.90;59.70
84176;DHT22;74306;40.114;18.304;2023-12-22T13:07:37;18.80;60.60
84176;DHT22;74306;40.114;18.304;2023-12-22T13:10:19;19.10;58.50
84176;DHT22;74306;40.114;18.304;2023-12-22T13:12:50;19.10;60.30
84176;DHT22;74306;40.114;18.304;2023-12-22T13:15:23;19.80;58.10
84176;DHT22;74306;40.114;18.304;2023-12-22T13:17:52;20.00;57.00
84176;DHT22;74306;40.114;18.304;2023-12-22T13:20:23;20.50;55.30
84176;DHT22;74306;40.114;18.304;2023-12-22T13:22:52;21.10;55.00
84176;DHT22;74306;40.114;18.304;2023-12-22T13:25:21;21.20;53.70
84176;DHT22;74306;40.114;18.304;2023-12-22T13:27:52;21.00;54.60
84176;DHT22;74306;40.114;18.304;2023-12-22T13:30:35;20.80;55.30
84176;DHT22;74306;40.114;18.304;2023-12-22T13:33:06;19.80;57.20
84176;DHT22;74306;40.114;18.304;2023-12-22T13:35:36;19.50;58.80
84176;DHT22;74306;40.114;18.304;2023-12-22T13:38:07;18.90;60.10
84176;DHT22;74306;40.114;18.304;2023-12-22T13:40:38;18.60;60.30
84176;DHT22;74306;40.114;18.304;2023-12-22T13:43:07;18.30;61.20
84176;DHT22;74306;40.114;18.304;2023-12-22T13:45:38;18.30;61.40
84176;DHT22;74306;40.114;18.304;2023-12-22T13:48:07;18.30;61.60
84176;DHT22;74306;40.114;18.304;2023-12-22T13:50:37;18.30;61.30
84176;DHT22;74306;40.114;18.304;2023-12-22T13:53:08;18.30;61.90
84176;DHT22;74306;40.114;18.304;2023-12-22T13:55:38;18.30;62.40
84176;DHT22;74306;40.114;18.304;2023-12-22T13:58:07;18.20;63.10
84176;DHT22;74306;40.114;18.304;2023-12-22T14:00:41;18.10;63.70
84176;DHT22;74306;40.114;18.304;2023-12-22T14:03:12;18.10;63.90
84176;DHT22;74306;40.114;18.304;2023-12-22T14:05:44;18.00;63.70
84176;DHT22;74306;40.114;18.304;2023-12-22T14:08:13;18.00;63.80
84176;DHT22;74306;40.114;18.304;2023-12-22T14:10:45;18.00;63.50
84176;DHT22;74306;40.114;18.304;2023-12-22T14:13:16;18.10;63.80
84176;DHT22;74306;40.114;18.304;2023-12-22T14:15:47;18.10;63.90
84176;DHT22;74306;40.114;18.304;2023-12-22T14:18:16;18.00;64.10
84176;DHT22;74306;40.114;18.304;2023-12-22T14:20:46;18.00;64.30
84176;DHT22;74306;40.114;18.304;2023-12-22T14:23:15;18.00;64.30
84176;DHT22;74306;40.114;18.304;2023-12-22T14:25:45;18.00;64.40
84176;DHT22;74306;40.114;18.304;2023-12-22T14:28:15;17.90;64.60
84176;DHT22;74306;40.114;18.304;2023-12-22T14:30:44;17.80;65.00
84176;DHT22;74306;40.114;18.304;2023-12-22T14:33:16;17.90;65.10
84176;DHT22;74306;40.114;18.304;2023-12-22T14:35:46;17.90;65.10
84176;DHT22;74306;40.114;18.304;2023-12-22T14:38:15;18.00;65.20
84176;DHT22;74306;40.114;18.304;2023-12-22T14:40:44;17.90;65.40
84176;DHT22;74306;40.114;18.304;2023-12-22T14:43:14;17.80;65.80
84176;DHT22;74306;40.114;18.304;2023-12-22T14:45:43;17.80;65.80
84176;DHT22;74306;40.114;18.304;2023-12-22T14:48:12;17.70;66.00
84176;DHT22;74306;40.114;18.304;2023-12-22T14:50:43;17.70;66.20
84176;DHT22;74306;40.114;18.304;2023-12-22T14:53:12;17.70;66.20
84176;DHT22;74306;40.114;18.304;2023-12-22T14:55:42;17.70;66.40
84176;DHT22;74306;40.114;18.304;2023-12-22T14:58:11;17.60;66.50
84176;DHT22;74306;40.114;18.304;2023-12-22T15:00:42;17.60;66.60
84176;DHT22;74306;40.114;18.304;2023-12-22T15:03:12;17.60;66.70
84176;DHT22;74306;40.114;18.304;2023-12-22T15:05:42;17.60;66.70
84176;DHT22;74306;40.114;18.304;2023-12-22T15:08:12;17.50;66.90
84176;DHT22;74306;40.114;18.304;2023-12-22T15:10:41;17.40;67.40
84176;DHT22;74306;40.114;18.304;2023-12-22T15:13:10;17.30;68.10
84176;DHT22;74306;40.114;18.304;2023-12-22T15:15:40;17.20;68.80
84176;DHT22;74306;40.114;18.304;2023-12-22T15:18:09;17.10;69.50
84176;DHT22;74306;40.114;18.304;2023-12-22T15:20:38;17.10;70.30
84176;DHT22;74306;40.114;18.304;2023-12-22T15:23:09;17.00;71.10
84176;DHT22;74306;40.114;18.304;2023-12-22T15:25:38;16.90;71.70
84176;DHT22;74306;40.114;18.304;2023-12-22T15:28:08;16.90;72.20
84176;DHT22;74306;40.114;18.304;2023-12-22T15:30:37;16.80;73.60
84176;DHT22;74306;40.114;18.304;2023-12-22T15:33:06;16.70;74.10